createdAt,value
2018-05-04T00:01:10.994Z,42.60
2018-05-04T00:03:40.681Z,43.20
2018-05-04T00:06:11.833Z,43.10
2018-05-04T00:08:41.545Z,44.40
2018-05-04T00:11:11.220Z,44.00
2018-05-04T00:13:40.934Z,43.80
2018-05-04T00:16:10.638Z,44.70
2018-05-04T00:18:40.364Z,45.40
2018-05-04T00:21:10.000Z,45.60
2018-05-04T00:23:39.655Z,44.70
2018-05-04T00:26:10.283Z,43.30
2018-05-04T00:28:39.973Z,43.10
2018-05-04T00:31:09.705Z,44.60
2018-05-04T00:33:39.437Z,45.60
2018-05-04T00:36:09.076Z,43.10
2018-05-04T00:38:38.761Z,44.80
2018-05-04T00:41:09.146Z,44.60
2018-05-04T00:43:39.670Z,44.60
2018-05-04T00:46:09.342Z,45.30
2018-05-04T00:48:39.931Z,46.50
2018-05-04T00:51:09.652Z,46.50
2018-05-04T00:53:50.593Z,46.60
2018-05-04T00:56:20.209Z,47.90
2018-05-04T00:58:49.823Z,48.20
2018-05-04T01:01:20.320Z,49.90
2018-05-04T01:03:51.802Z,49.80
2018-05-04T01:06:22.341Z,49.40
2018-05-04T01:08:52.252Z,49.40
2018-05-04T01:11:22.937Z,49.00
2018-05-04T01:13:52.747Z,49.20
2018-05-04T01:16:22.596Z,49.10
2018-05-04T01:18:52.464Z,50.20
2018-05-04T01:21:23.092Z,49.70
2018-05-04T01:23:52.984Z,51.20
2018-05-04T01:26:25.386Z,49.50
2018-05-04T01:29:00.306Z,49.60
2018-05-04T01:31:31.051Z,50.60
2018-05-04T01:34:00.878Z,47.80
2018-05-04T01:36:30.668Z,46.10
2018-05-04T01:39:01.377Z,46.20
2018-05-04T01:41:31.616Z,46.70
2018-05-04T01:44:01.400Z,47.30
2018-05-04T01:46:31.163Z,49.20
2018-05-04T01:49:00.922Z,48.80
2018-05-04T01:51:31.102Z,49.80
2018-05-04T01:54:00.939Z,50.20
2018-05-04T01:56:31.188Z,50.30
2018-05-04T01:59:01.228Z,50.30
2018-05-04T02:01:31.764Z,49.00
2018-05-04T02:04:01.545Z,48.90
2018-05-04T02:06:31.495Z,48.80
2018-05-04T02:09:01.408Z,48.20
2018-05-04T02:11:31.143Z,48.90
2018-05-04T02:14:00.929Z,49.60
2018-05-04T02:16:31.469Z,50.60
2018-05-04T02:19:01.239Z,50.60
2018-05-04T02:21:31.163Z,51.10
2018-05-04T02:24:00.896Z,50.20
2018-05-04T02:26:31.908Z,52.00
2018-05-04T02:29:01.868Z,51.80
2018-05-04T02:31:33.431Z,51.60
2018-05-04T02:34:04.053Z,51.90
2018-05-04T02:36:35.495Z,52.10
2018-05-04T02:39:05.710Z,53.10
2018-05-04T02:41:35.543Z,53.60
2018-05-04T02:44:05.249Z,54.40
2018-05-04T02:46:35.079Z,54.50
2018-05-04T02:49:04.868Z,55.00
2018-05-04T02:51:34.611Z,55.60
2018-05-04T02:54:04.401Z,55.90
2018-05-04T02:56:34.179Z,55.20
2018-05-04T02:59:03.925Z,55.60
2018-05-04T03:01:33.651Z,56.00
2018-05-04T03:04:03.388Z,57.40
2018-05-04T03:06:33.144Z,57.70
2018-05-04T03:09:02.993Z,58.90
2018-05-04T03:11:32.754Z,61.40
2018-05-04T03:14:04.589Z,60.90
2018-05-04T03:16:34.342Z,61.70
2018-05-04T03:19:04.837Z,64.10
2018-05-04T03:21:34.600Z,64.10
2018-05-04T03:24:04.724Z,65.30
2018-05-04T03:26:34.492Z,67.60
2018-05-04T03:29:04.311Z,67.60
2018-05-04T03:31:35.664Z,68.60
2018-05-04T03:34:06.148Z,70.50
2018-05-04T03:36:35.999Z,70.50
2018-05-04T03:39:06.147Z,70.80
2018-05-04T03:41:35.893Z,72.10
2018-05-04T03:44:05.642Z,72.40
2018-05-04T03:46:35.418Z,72.00
2018-05-04T03:49:05.185Z,74.10
2018-05-04T03:51:35.241Z,73.50
2018-05-04T03:54:06.140Z,73.80
2018-05-04T03:56:35.921Z,73.70
2018-05-04T03:59:16.664Z,73.50
2018-05-04T04:01:57.426Z,73.90
2018-05-04T04:04:27.184Z,73.50
2018-05-04T04:06:56.999Z,73.90
2018-05-04T04:09:27.552Z,74.10
2018-05-04T04:11:57.280Z,74.10
2018-05-04T04:14:27.132Z,74.30
2018-05-04T04:16:56.817Z,74.10
2018-05-04T04:19:26.520Z,74.40
2018-05-04T04:21:56.352Z,74.70
2018-05-04T04:24:26.259Z,75.10
2018-05-04T04:26:56.117Z,75.60
2018-05-04T04:29:25.915Z,76.20
2018-05-04T04:31:55.853Z,77.00
2018-05-04T04:34:25.598Z,76.80
2018-05-04T04:36:55.351Z,76.60
2018-05-04T04:39:25.147Z,76.90
2018-05-04T04:41:54.992Z,77.70
2018-05-04T04:44:25.533Z,76.50
2018-05-04T04:46:55.323Z,76.50
2018-05-04T04:49:25.191Z,76.60
2018-05-04T04:51:55.152Z,78.40
2018-05-04T04:54:25.044Z,78.40
2018-05-04T04:56:54.831Z,79.10
2018-05-04T04:59:25.736Z,79.20
2018-05-04T05:01:55.761Z,80.30
2018-05-04T05:04:25.563Z,78.90
2018-05-04T05:06:55.330Z,80.70
2018-05-04T05:09:25.246Z,80.10
2018-05-04T05:11:55.127Z,79.60
2018-05-04T05:14:24.880Z,79.90
2018-05-04T05:16:54.609Z,79.70
2018-05-04T05:19:25.211Z,81.00
2018-05-04T05:21:54.980Z,80.50
2018-05-04T05:24:24.751Z,81.30
2018-05-04T05:26:54.553Z,81.40
2018-05-04T05:29:24.364Z,81.90
2018-05-04T05:31:54.101Z,81.20
2018-05-04T05:34:24.633Z,82.90
2018-05-04T05:36:54.333Z,82.10
2018-05-04T05:39:24.145Z,81.90
2018-05-04T05:41:53.899Z,80.80
2018-05-04T05:44:23.700Z,80.90
2018-05-04T05:46:53.403Z,81.10
2018-05-04T05:49:23.238Z,81.80
2018-05-04T05:51:53.193Z,81.20
2018-05-04T05:54:23.024Z,81.10
2018-05-04T05:56:53.142Z,81.50
2018-05-04T05:59:22.943Z,81.50
2018-05-04T06:01:52.788Z,83.10
2018-05-04T06:04:22.654Z,81.60
2018-05-04T06:06:52.511Z,82.70
2018-05-04T06:09:23.219Z,82.60
2018-05-04T06:11:52.961Z,82.60
2018-05-04T06:14:23.516Z,82.10
2018-05-04T06:16:53.252Z,82.10
2018-05-04T06:19:23.370Z,81.80
2018-05-04T06:21:53.140Z,81.90
2018-05-04T06:24:22.908Z,82.10
2018-05-04T06:26:52.687Z,81.20
2018-05-04T06:29:22.469Z,81.30
2018-05-04T06:31:52.436Z,81.60
2018-05-04T06:34:22.163Z,81.00
2018-05-04T06:36:51.885Z,81.70
2018-05-04T06:39:21.655Z,82.60
2018-05-04T06:41:51.401Z,81.50
2018-05-04T06:44:21.191Z,82.80
2018-05-04T06:46:51.022Z,82.60
2018-05-04T06:49:20.882Z,83.80
2018-05-04T06:51:50.699Z,85.50
2018-05-04T06:54:20.478Z,83.80
2018-05-04T06:56:50.997Z,84.40
2018-05-04T06:59:20.882Z,84.40
2018-05-04T07:01:50.691Z,85.50
2018-05-04T07:04:20.523Z,85.00
2018-05-04T07:06:50.255Z,84.10
2018-05-04T07:09:20.039Z,83.90
2018-05-04T07:11:49.849Z,83.70
2018-05-04T07:14:19.601Z,85.40
2018-05-04T07:16:50.228Z,83.90
2018-05-04T07:19:19.940Z,83.80
2018-05-04T07:21:49.754Z,85.00
2018-05-04T07:24:20.291Z,84.50
2018-05-04T07:26:50.245Z,84.40
2018-05-04T07:29:20.058Z,84.00
2018-05-04T07:31:49.915Z,83.50
2018-05-04T07:34:19.697Z,83.80
2018-05-04T07:36:49.739Z,84.40
2018-05-04T07:39:19.463Z,82.90
2018-05-04T07:41:49.222Z,83.70
2018-05-04T07:44:19.080Z,82.90
2018-05-04T07:46:48.868Z,83.60
2018-05-04T07:49:18.725Z,83.10
2018-05-04T07:51:48.509Z,83.00
2018-05-04T07:54:18.305Z,83.50
2018-05-04T07:56:48.114Z,82.90
2018-05-04T07:59:17.864Z,83.00
2018-05-04T08:01:47.671Z,84.00
2018-05-04T08:04:17.433Z,84.60
2018-05-04T08:06:47.158Z,83.80
2018-05-04T08:09:23.883Z,84.50
2018-05-04T08:11:54.509Z,83.60
2018-05-04T08:14:24.342Z,83.70
2018-05-04T08:16:54.048Z,83.30
2018-05-04T08:19:23.726Z,84.00
2018-05-04T08:21:53.497Z,84.50
2018-05-04T08:24:23.187Z,84.50
2018-05-04T08:26:52.914Z,83.50
2018-05-04T08:29:22.726Z,83.90
2018-05-04T08:31:52.476Z,83.30
2018-05-04T08:34:22.157Z,83.40
2018-05-04T08:36:51.871Z,83.70
2018-05-04T08:39:21.657Z,83.80
2018-05-04T08:41:51.412Z,84.10
2018-05-04T08:44:21.188Z,83.20
2018-05-04T08:46:51.034Z,84.20
2018-05-04T08:49:20.793Z,84.30
2018-05-04T08:51:50.565Z,84.00
2018-05-04T08:54:20.389Z,84.40
2018-05-04T08:56:50.167Z,84.10
2018-05-04T08:59:19.820Z,84.70
2018-05-04T09:01:49.522Z,84.30
2018-05-04T09:04:19.217Z,84.80
2018-05-04T09:06:48.961Z,84.90
2018-05-04T09:09:18.718Z,85.30
2018-05-04T09:11:48.439Z,86.30
2018-05-04T09:14:18.325Z,85.30
2018-05-04T09:16:48.131Z,84.50
2018-05-04T09:19:25.016Z,85.20
2018-05-04T09:21:54.764Z,84.60
2018-05-04T09:24:24.517Z,85.20
2018-05-04T09:26:54.310Z,85.10
2018-05-04T09:29:24.004Z,85.30
2018-05-04T09:31:53.760Z,85.80
2018-05-04T09:34:23.548Z,85.10
2018-05-04T09:36:53.261Z,85.80
2018-05-04T09:39:23.141Z,86.30
2018-05-04T09:41:52.918Z,85.40
2018-05-04T09:44:22.734Z,85.70
2018-05-04T09:46:52.481Z,86.30
2018-05-04T09:49:22.198Z,85.70
2018-05-04T09:51:52.125Z,86.50
2018-05-04T09:54:22.020Z,86.50
2018-05-04T09:56:51.903Z,86.20
2018-05-04T09:59:21.625Z,87.30
2018-05-04T10:01:51.346Z,86.80
2018-05-04T10:04:21.059Z,86.10
2018-05-04T10:06:50.828Z,87.00
2018-05-04T10:09:20.542Z,86.30
2018-05-04T10:11:50.284Z,86.20
2018-05-04T10:14:20.121Z,86.40
2018-05-04T10:16:49.895Z,86.40
2018-05-04T10:19:19.653Z,86.40
2018-05-04T10:21:49.483Z,86.00
2018-05-04T10:24:19.229Z,86.90
2018-05-04T10:26:49.016Z,86.60
2018-05-04T10:29:18.769Z,86.60
2018-05-04T10:31:48.668Z,87.40
2018-05-04T10:34:18.436Z,87.90
2018-05-04T10:36:48.347Z,86.50
2018-05-04T10:39:18.087Z,86.70
2018-05-04T10:41:47.924Z,86.00
2018-05-04T10:44:17.622Z,87.30
2018-05-04T10:46:47.389Z,86.20
2018-05-04T10:49:17.147Z,87.50
2018-05-04T10:51:46.915Z,87.20
2018-05-04T10:54:17.427Z,87.00
2018-05-04T10:56:47.357Z,87.00
2018-05-04T10:59:17.111Z,87.80
2018-05-04T11:01:46.857Z,87.00
2018-05-04T11:04:16.599Z,87.40
2018-05-04T11:06:46.400Z,87.00
2018-05-04T11:09:16.119Z,87.70
2018-05-04T11:11:46.953Z,86.80
2018-05-04T11:14:16.631Z,86.70
2018-05-04T11:16:46.339Z,87.00
2018-05-04T11:19:16.059Z,86.70
2018-05-04T11:21:45.781Z,87.90
2018-05-04T11:24:15.547Z,87.10
2018-05-04T11:26:45.264Z,87.80
2018-05-04T11:29:15.022Z,89.20
2018-05-04T11:31:44.684Z,88.40
2018-05-04T11:34:14.420Z,86.70
2018-05-04T11:36:44.149Z,86.10
2018-05-04T11:39:13.918Z,87.60
2018-05-04T11:41:43.839Z,85.70
2018-05-04T11:44:13.549Z,85.80
2018-05-04T11:46:43.287Z,85.90
2018-05-04T11:49:12.981Z,85.00
2018-05-04T11:51:42.755Z,86.50
2018-05-04T11:54:12.457Z,85.40
2018-05-04T11:56:42.180Z,85.60
2018-05-04T11:59:11.933Z,86.30
2018-05-04T12:01:41.601Z,85.20
2018-05-04T12:04:11.300Z,84.90
2018-05-04T12:06:41.048Z,85.50
2018-05-04T12:09:10.894Z,85.70
2018-05-04T12:11:40.648Z,85.60
2018-05-04T12:14:10.462Z,85.30
2018-05-04T12:16:40.229Z,85.10
2018-05-04T12:19:10.136Z,85.30
2018-05-04T12:21:39.854Z,85.40
2018-05-04T12:24:09.596Z,85.00
2018-05-04T12:26:39.358Z,86.50
2018-05-04T12:29:09.072Z,85.00
2018-05-04T12:31:38.816Z,85.50
2018-05-04T12:34:09.232Z,85.30
2018-05-04T12:36:38.961Z,85.30
2018-05-04T12:39:08.730Z,85.60
2018-05-04T12:41:38.432Z,85.50
2018-05-04T12:44:08.192Z,85.40
2018-05-04T12:46:37.920Z,86.10
2018-05-04T12:49:07.739Z,85.60
2018-05-04T12:51:37.611Z,85.40
2018-05-04T12:54:07.405Z,85.60
2018-05-04T12:56:37.244Z,85.60
2018-05-04T12:59:07.025Z,86.30
2018-05-04T13:01:37.504Z,86.80
2018-05-04T13:04:07.207Z,86.40
2018-05-04T13:06:36.959Z,86.50
2018-05-04T13:09:07.076Z,88.00
2018-05-04T13:11:36.835Z,88.00
2018-05-04T13:14:06.771Z,86.80
2018-05-04T13:16:36.538Z,87.00
2018-05-04T13:19:06.284Z,86.70
2018-05-04T13:21:35.986Z,88.30
2018-05-04T13:24:05.773Z,88.60
2018-05-04T13:26:36.317Z,85.70
2018-05-04T13:29:06.069Z,85.70
2018-05-04T13:31:35.803Z,86.70
2018-05-04T13:34:06.331Z,87.00
2018-05-04T13:36:36.143Z,86.00
2018-05-04T13:39:07.005Z,86.50
2018-05-04T13:41:36.711Z,85.50
2018-05-04T13:44:06.547Z,85.40
2018-05-04T13:46:37.044Z,85.70
2018-05-04T13:49:06.833Z,85.70
2018-05-04T13:51:36.910Z,85.80
2018-05-04T13:54:06.654Z,85.70
2018-05-04T13:56:36.391Z,87.00
2018-05-04T13:59:06.146Z,86.80
2018-05-04T14:01:36.048Z,86.70
2018-05-04T14:04:05.778Z,86.20
2018-05-04T14:06:35.728Z,88.70
2018-05-04T14:09:05.969Z,87.20
2018-05-04T14:11:35.677Z,85.60
2018-05-04T14:14:05.326Z,87.20
2018-05-04T14:16:35.794Z,87.30
2018-05-04T14:19:05.667Z,87.20
2018-05-04T14:21:35.434Z,88.20
2018-05-04T14:24:05.190Z,87.30
2018-05-04T14:26:34.942Z,86.00
2018-05-04T14:29:04.694Z,85.50
2018-05-04T14:31:34.508Z,86.30
2018-05-04T14:34:04.326Z,87.60
2018-05-04T14:36:34.088Z,87.10
2018-05-04T14:39:04.025Z,87.20
2018-05-04T14:41:34.395Z,86.80
2018-05-04T14:44:04.511Z,86.60
2018-05-04T14:46:34.436Z,87.00
2018-05-04T14:49:04.732Z,86.20
2018-05-04T14:51:34.809Z,88.10
2018-05-04T14:54:05.615Z,86.90
2018-05-04T14:56:35.621Z,86.90
2018-05-04T14:59:05.625Z,87.60
2018-05-04T15:01:35.707Z,87.00
2018-05-04T15:04:06.897Z,87.60
2018-05-04T15:06:36.961Z,87.20
2018-05-04T15:09:07.308Z,88.00
2018-05-04T15:11:37.272Z,88.70
2018-05-04T15:14:08.172Z,88.70
2018-05-04T15:16:38.371Z,88.70
2018-05-04T15:19:08.900Z,89.00
2018-05-04T15:21:38.963Z,88.10
2018-05-04T15:24:08.801Z,88.40
2018-05-04T15:26:38.565Z,87.80
2018-05-04T15:29:08.260Z,87.60
2018-05-04T15:31:38.858Z,86.60
2018-05-04T15:34:08.645Z,86.50
2018-05-04T15:36:38.331Z,86.30
2018-05-04T15:39:08.101Z,86.60
2018-05-04T15:41:37.886Z,87.10
2018-05-04T15:44:08.405Z,86.20
2018-05-04T15:46:38.946Z,85.90
2018-05-04T15:49:13.879Z,85.90
2018-05-04T15:51:48.883Z,87.80
2018-05-04T15:54:18.682Z,88.70
2018-05-04T15:56:48.388Z,87.60
2018-05-04T15:59:18.149Z,87.00
2018-05-04T16:01:48.083Z,87.50
2018-05-04T16:04:17.860Z,88.50
2018-05-04T16:06:47.753Z,87.50
2018-05-04T16:09:17.524Z,87.50
2018-05-04T16:11:47.200Z,86.40
2018-05-04T16:14:16.940Z,86.00
2018-05-04T16:16:46.902Z,86.20
2018-05-04T16:19:16.617Z,85.10
2018-05-04T16:21:46.282Z,85.80
2018-05-04T16:24:16.031Z,85.30
2018-05-04T16:26:45.741Z,86.10
2018-05-04T16:29:15.444Z,84.90
2018-05-04T16:31:45.118Z,84.40
2018-05-04T16:34:14.901Z,83.50
2018-05-04T16:36:45.398Z,81.30
2018-05-04T16:39:15.530Z,81.30
2018-05-04T16:41:45.427Z,81.60
2018-05-04T16:44:15.130Z,82.50
2018-05-04T16:46:50.204Z,81.40
2018-05-04T16:49:25.045Z,82.50
2018-05-04T16:51:55.564Z,81.90
2018-05-04T16:54:26.400Z,80.00
2018-05-04T16:56:56.400Z,79.90
2018-05-04T16:59:26.345Z,79.00
2018-05-04T17:01:56.836Z,78.60
2018-05-04T17:04:26.626Z,78.60
2018-05-04T17:06:56.554Z,76.90
2018-05-04T17:09:26.433Z,79.80
2018-05-04T17:11:56.377Z,76.20
2018-05-04T17:14:26.351Z,79.90
2018-05-04T17:16:56.201Z,77.60
2018-05-04T17:19:26.071Z,74.00
2018-05-04T17:21:56.759Z,74.70
2018-05-04T17:24:27.017Z,74.60
2018-05-04T17:26:56.764Z,74.30
2018-05-04T17:29:26.657Z,75.70
2018-05-04T17:31:56.440Z,76.70
2018-05-04T17:34:26.188Z,75.50
2018-05-04T17:36:56.172Z,77.60
2018-05-04T17:39:25.879Z,78.40
2018-05-04T17:41:55.586Z,77.10
2018-05-04T17:44:25.351Z,77.30
2018-05-04T17:46:55.248Z,76.90
2018-05-04T17:49:25.216Z,77.50
2018-05-04T17:51:54.960Z,78.10
2018-05-04T17:54:25.472Z,74.50
2018-05-04T17:56:55.167Z,74.50
2018-05-04T17:59:24.890Z,73.50
2018-05-04T18:01:54.645Z,74.00
2018-05-04T18:04:24.393Z,72.40
2018-05-04T18:06:54.094Z,68.80
2018-05-04T18:09:23.780Z,68.30
2018-05-04T18:11:54.230Z,68.10
2018-05-04T18:14:23.958Z,68.10
2018-05-04T18:16:53.667Z,68.00
2018-05-04T18:19:23.392Z,66.70
2018-05-04T18:21:53.167Z,64.80
2018-05-04T18:24:23.012Z,66.50
2018-05-04T18:26:52.892Z,66.70
2018-05-04T18:29:22.656Z,66.20
2018-05-04T18:31:52.346Z,67.90
2018-05-04T18:34:22.006Z,63.30
2018-05-04T18:36:52.090Z,64.00
2018-05-04T18:39:21.812Z,63.30
2018-05-04T18:41:51.557Z,64.00
2018-05-04T18:44:21.427Z,64.60
2018-05-04T18:46:51.237Z,67.00
2018-05-04T18:49:21.006Z,64.10
2018-05-04T18:51:50.807Z,64.70
2018-05-04T18:54:20.540Z,63.20
2018-05-04T18:56:50.376Z,66.50
2018-05-04T18:59:23.857Z,66.10
2018-05-04T19:01:53.600Z,66.30
2018-05-04T19:04:23.407Z,65.10
2018-05-04T19:06:53.356Z,63.90
2018-05-04T19:09:23.107Z,62.30
2018-05-04T19:11:53.004Z,61.90
2018-05-04T19:14:22.766Z,61.20
2018-05-04T19:16:52.537Z,62.90
2018-05-04T19:19:22.344Z,59.00
2018-05-04T19:21:52.184Z,61.00
2018-05-04T19:24:21.938Z,60.70
2018-05-04T19:26:51.690Z,61.00
2018-05-04T19:29:21.581Z,60.60
2018-05-04T19:31:51.292Z,59.80
2018-05-04T19:34:21.150Z,61.10
2018-05-04T19:36:50.895Z,59.20
2018-05-04T19:39:20.727Z,60.50
2018-05-04T19:41:50.443Z,59.30
2018-05-04T19:44:20.300Z,57.70
2018-05-04T19:46:50.009Z,55.70
2018-05-04T19:49:19.671Z,55.40
2018-05-04T19:51:49.469Z,57.00
2018-05-04T19:54:19.655Z,55.40
2018-05-04T19:56:49.472Z,57.10
2018-05-04T19:59:19.556Z,55.90
2018-05-04T20:01:49.354Z,58.30
2018-05-04T20:04:19.880Z,56.20
2018-05-04T20:06:49.657Z,58.60
2018-05-04T20:09:19.460Z,56.00
2018-05-04T20:11:49.379Z,57.60
2018-05-04T20:14:19.162Z,56.80
2018-05-04T20:16:49.781Z,58.20
2018-05-04T20:19:19.533Z,58.70
2018-05-04T20:21:50.088Z,60.00
2018-05-04T20:24:19.909Z,60.00
2018-05-04T20:26:50.517Z,56.50
2018-05-04T20:29:21.104Z,58.20
2018-05-04T20:31:51.179Z,58.10
2018-05-04T20:34:20.951Z,58.10
2018-05-04T20:36:50.890Z,57.30
2018-05-04T20:39:20.810Z,54.30
2018-05-04T20:41:50.691Z,57.70
2018-05-04T20:44:21.527Z,56.20
2018-05-04T20:46:51.275Z,55.20
2018-05-04T20:49:21.107Z,54.70
2018-05-04T20:51:50.907Z,56.80
2018-05-04T20:54:20.669Z,57.70
2018-05-04T20:56:50.732Z,56.60
2018-05-04T20:59:20.526Z,57.50
2018-05-04T21:01:50.350Z,55.50
2018-05-04T21:04:20.307Z,60.10
2018-05-04T21:06:50.096Z,54.70
2018-05-04T21:09:20.083Z,56.00
2018-05-04T21:11:50.833Z,53.20
2018-05-04T21:14:20.596Z,53.20
2018-05-04T21:16:50.333Z,55.00
2018-05-04T21:19:20.159Z,53.90
2018-05-04T21:21:50.716Z,55.60
2018-05-04T21:24:20.500Z,55.60
2018-05-04T21:26:50.283Z,55.00
2018-05-04T21:29:20.393Z,55.50
2018-05-04T21:31:50.229Z,55.20
2018-05-04T21:34:19.980Z,52.50
2018-05-04T21:36:56.384Z,51.10
2018-05-04T21:39:26.176Z,54.10
2018-05-04T21:41:55.964Z,53.20
2018-05-04T21:44:26.544Z,55.50
2018-05-04T21:46:56.319Z,55.50
2018-05-04T21:49:25.997Z,53.70
2018-05-04T21:51:56.058Z,51.50
2018-05-04T21:54:25.984Z,53.20
2018-05-04T21:56:55.768Z,51.60
2018-05-04T21:59:25.661Z,52.10
2018-05-04T22:01:55.454Z,51.60
2018-05-04T22:04:25.228Z,50.10
2018-05-04T22:06:55.009Z,51.20
2018-05-04T22:09:24.883Z,53.50
2018-05-04T22:14:40.058Z,51.70
2018-05-04T22:17:10.112Z,52.10
2018-05-04T22:19:39.947Z,50.30
2018-05-04T22:22:09.754Z,49.90
2018-05-04T22:24:39.474Z,51.80
2018-05-04T22:27:09.180Z,51.10
2018-05-04T22:29:38.978Z,53.20
2018-05-04T22:32:09.991Z,53.20
2018-05-04T22:34:39.831Z,52.90
2018-05-04T22:37:09.709Z,52.20
2018-05-04T22:39:39.652Z,52.90
2018-05-04T22:42:09.487Z,51.10
2018-05-04T22:44:39.285Z,54.80
2018-05-04T22:47:09.053Z,51.80
2018-05-04T22:49:38.815Z,51.80
2018-05-04T22:52:08.810Z,51.20
2018-05-04T22:54:38.738Z,51.40
2018-05-04T22:57:08.503Z,52.60
2018-05-04T22:59:40.452Z,53.80
2018-05-04T23:02:10.188Z,53.40
2018-05-04T23:04:39.951Z,51.60
2018-05-04T23:07:09.992Z,51.60
2018-05-04T23:09:39.777Z,55.30
2018-05-04T23:12:10.304Z,53.70
2018-05-04T23:14:41.001Z,56.10
2018-05-04T23:17:10.785Z,56.10
2018-05-04T23:19:40.510Z,54.50
2018-05-04T23:22:10.522Z,55.00
2018-05-04T23:24:40.323Z,55.10
2018-05-04T23:27:10.125Z,53.90
2018-05-04T23:29:39.966Z,55.00
2018-05-04T23:32:09.893Z,57.20
2018-05-04T23:34:39.772Z,56.30
2018-05-04T23:37:09.641Z,55.40
2018-05-04T23:39:39.475Z,55.40
2018-05-04T23:42:09.272Z,53.50
2018-05-04T23:44:38.982Z,55.80
2018-05-04T23:47:08.936Z,56.10
2018-05-04T23:49:38.712Z,53.70
2018-05-04T23:52:08.564Z,52.20
2018-05-04T23:54:38.505Z,53.10
2018-05-04T23:57:08.297Z,53.50
2018-05-04T23:59:38.225Z,54.40
